sensor_id;sensor_type;location;lat;lon;timestamp;P1;durP1;ratioP1;P2;durP2;ratioP2
7929;SDS011;4010;42.698;23.124;2024-01-06T00:00:07;4.10;;;2.23;;
7929;SDS011;4010;42.698;23.124;2024-01-06T00:02:34;2.67;;;2.43;;
7929;SDS011;4010;42.698;23.124;2024-01-06T00:05:01;6.27;;;3.50;;
7929;SDS011;4010;42.698;23.124;2024-01-06T00:07:28;5.07;;;3.43;;
7929;SDS011;4010;42.698;23.124;2024-01-06T00:09:55;3.83;;;3.30;;
7929;SDS011;4010;42.698;23.124;2024-01-06T00:12:21;6.13;;;3.23;;
7929;SDS011;4010;42.698;23.124;2024-01-06T00:14:49;4.23;;;3.10;;
7929;SDS011;4010;42.698;23.124;2024-01-06T00:17:16;5.30;;;3.13;;
7929;SDS011;4010;42.698;23.124;2024-01-06T00:19:43;8.60;;;2.60;;
7929;SDS011;4010;42.698;23.124;2024-01-06T00:22:12;3.20;;;2.17;;
7929;SDS011;4010;42.698;23.124;2024-01-06T00:24:39;4.53;;;1.97;;
7929;SDS011;4010;42.698;23.124;2024-01-06T00:27:05;2.30;;;2.00;;
7929;SDS011;4010;42.698;23.124;2024-01-06T00:29:32;2.20;;;1.97;;
7929;SDS011;4010;42.698;23.124;2024-01-06T00:32:00;1.80;;;1.70;;
7929;SDS011;4010;42.698;23.124;2024-01-06T00:34:27;5.53;;;3.40;;
7929;SDS011;4010;42.698;23.124;2024-01-06T00:36:53;1.73;;;1.27;;
7929;SDS011;4010;42.698;23.124;2024-01-06T00:39:20;4.03;;;2.17;;
7929;SDS011;4010;42.698;23.124;2024-01-06T00:41:47;2.20;;;1.63;;
7929;SDS011;4010;42.698;23.124;2024-01-06T00:44:13;4.33;;;1.33;;
7929;SDS011;4010;42.698;23.124;2024-01-06T00:46:40;3.07;;;1.20;;
7929;SDS011;4010;42.698;23.124;2024-01-06T00:49:08;1.50;;;1.30;;
7929;SDS011;4010;42.698;23.124;2024-01-06T00:51:35;3.50;;;1.83;;
7929;SDS011;4010;42.698;23.124;2024-01-06T00:54:01;8.60;;;2.60;;
7929;SDS011;4010;42.698;23.124;2024-01-06T00:56:28;4.23;;;3.70;;
7929;SDS011;4010;42.698;23.124;2024-01-06T00:58:55;3.80;;;2.93;;
7929;SDS011;4010;42.698;23.124;2024-01-06T01:01:22;3.87;;;3.17;;
7929;SDS011;4010;42.698;23.124;2024-01-06T01:03:48;4.33;;;2.70;;
7929;SDS011;4010;42.698;23.124;2024-01-06T01:06:16;4.10;;;2.30;;
7929;SDS011;4010;42.698;23.124;2024-01-06T01:08:43;4.07;;;1.70;;
7929;SDS011;4010;42.698;23.124;2024-01-06T01:11:10;4.90;;;2.50;;
7929;SDS011;4010;42.698;23.124;2024-01-06T01:13:36;2.37;;;1.70;;
7929;SDS011;4010;42.698;23.124;2024-01-06T01:16:03;2.23;;;1.80;;
7929;SDS011;4010;42.698;23.124;2024-01-06T01:18:30;2.40;;;1.50;;
7929;SDS011;4010;42.698;23.124;2024-01-06T01:20:57;2.50;;;1.60;;
7929;SDS011;4010;42.698;23.124;2024-01-06T01:23:25;2.17;;;1.30;;
7929;SDS011;4010;42.698;23.124;2024-01-06T01:25:52;2.90;;;1.37;;
7929;SDS011;4010;42.698;23.124;2024-01-06T01:28:20;1.93;;;1.37;;
7929;SDS011;4010;42.698;23.124;2024-01-06T01:30:47;1.57;;;1.27;;
7929;SDS011;4010;42.698;23.124;2024-01-06T01:33:14;2.30;;;1.13;;
7929;SDS011;4010;42.698;23.124;2024-01-06T01:35:40;1.83;;;1.30;;
7929;SDS011;4010;42.698;23.124;2024-01-06T01:38:07;1.23;;;1.07;;
7929;SDS011;4010;42.698;23.124;2024-01-06T01:40:35;1.50;;;1.10;;
7929;SDS011;4010;42.698;23.124;2024-01-06T01:43:02;1.23;;;0.90;;
7929;SDS011;4010;42.698;23.124;2024-01-06T01:45:28;2.47;;;1.20;;
7929;SDS011;4010;42.698;23.124;2024-01-06T01:47:55;1.60;;;1.23;;
7929;SDS011;4010;42.698;23.124;2024-01-06T01:50:22;1.57;;;1.20;;
7929;SDS011;4010;42.698;23.124;2024-01-06T01:52:52;1.20;;;1.03;;
7929;SDS011;4010;42.698;23.124;2024-01-06T01:55:20;2.30;;;1.23;;
7929;SDS011;4010;42.698;23.124;2024-01-06T01:57:48;1.87;;;1.10;;
7929;SDS011;4010;42.698;23.124;2024-01-06T02:00:15;1.60;;;1.20;;
7929;SDS011;4010;42.698;23.124;2024-01-06T02:02:42;1.83;;;1.20;;
7929;SDS011;4010;42.698;23.124;2024-01-06T02:05:09;1.47;;;1.20;;
7929;SDS011;4010;42.698;23.124;2024-01-06T02:07:35;1.23;;;1.10;;
7929;SDS011;4010;42.698;23.124;2024-01-06T02:10:02;1.93;;;1.20;;
7929;SDS011;4010;42.698;23.124;2024-01-06T02:12:30;1.53;;;1.00;;
7929;SDS011;4010;42.698;23.124;2024-01-06T02:14:58;1.27;;;1.10;;
7929;SDS011;4010;42.698;23.124;2024-01-06T02:17:24;1.17;;;1.00;;
7929;SDS011;4010;42.698;23.124;2024-01-06T02:19:51;2.10;;;1.37;;
7929;SDS011;4010;42.698;23.124;2024-01-06T02:22:20;2.07;;;1.37;;
7929;SDS011;4010;42.698;23.124;2024-01-06T02:24:46;2.60;;;1.20;;
7929;SDS011;4010;42.698;23.124;2024-01-06T02:27:14;2.37;;;1.77;;
7929;SDS011;4010;42.698;23.124;2024-01-06T02:29:40;2.50;;;1.33;;
7929;SDS011;4010;42.698;23.124;2024-01-06T02:32:07;3.33;;;2.43;;
7929;SDS011;4010;42.698;23.124;2024-01-06T02:34:34;2.23;;;1.50;;
7929;SDS011;4010;42.698;23.124;2024-01-06T02:37:03;3.53;;;2.40;;
7929;SDS011;4010;42.698;23.124;2024-01-06T02:39:31;3.77;;;2.67;;
7929;SDS011;4010;42.698;23.124;2024-01-06T02:41:58;3.53;;;2.73;;
7929;SDS011;4010;42.698;23.124;2024-01-06T02:44:24;4.37;;;2.50;;
7929;SDS011;4010;42.698;23.124;2024-01-06T02:46:51;2.63;;;2.00;;
7929;SDS011;4010;42.698;23.124;2024-01-06T02:49:19;4.87;;;2.80;;
7929;SDS011;4010;42.698;23.124;2024-01-06T02:51:46;5.10;;;2.80;;
7929;SDS011;4010;42.698;23.124;2024-01-06T02:54:12;5.70;;;3.37;;
7929;SDS011;4010;42.698;23.124;2024-01-06T02:56:40;6.90;;;4.50;;
7929;SDS011;4010;42.698;23.124;2024-01-06T02:59:07;4.80;;;3.60;;
7929;SDS011;4010;42.698;23.124;2024-01-06T03:01:34;5.93;;;3.80;;
7929;SDS011;4010;42.698;23.124;2024-01-06T03:04:01;6.67;;;4.27;;
7929;SDS011;4010;42.698;23.124;2024-01-06T03:06:28;6.70;;;3.63;;
7929;SDS011;4010;42.698;23.124;2024-01-06T03:08:54;6.63;;;4.37;;
7929;SDS011;4010;42.698;23.124;2024-01-06T03:11:22;4.47;;;3.20;;
7929;SDS011;4010;42.698;23.124;2024-01-06T03:13:51;6.87;;;4.27;;
7929;SDS011;4010;42.698;23.124;2024-01-06T03:16:18;5.47;;;3.87;;
7929;SDS011;4010;42.698;23.124;2024-01-06T03:18:44;10.07;;;4.70;;
7929;SDS011;4010;42.698;23.124;2024-01-06T03:21:18;10.57;;;5.53;;
7929;SDS011;4010;42.698;23.124;2024-01-06T03:23:45;6.53;;;4.30;;
7929;SDS011;4010;42.698;23.124;2024-01-06T03:26:12;6.07;;;4.03;;
7929;SDS011;4010;42.698;23.124;2024-01-06T03:28:39;6.60;;;4.07;;
7929;SDS011;4010;42.698;23.124;2024-01-06T03:31:07;7.33;;;4.90;;
7929;SDS011;4010;42.698;23.124;2024-01-06T03:33:33;5.80;;;4.17;;
7929;SDS011;4010;42.698;23.124;2024-01-06T03:36:03;7.83;;;4.30;;
7929;SDS011;4010;42.698;23.124;2024-01-06T03:38:30;8.50;;;4.67;;
7929;SDS011;4010;42.698;23.124;2024-01-06T03:40:57;7.77;;;4.10;;
7929;SDS011;4010;42.698;23.124;2024-01-06T03:43:23;6.07;;;4.20;;
7929;SDS011;4010;42.698;23.124;2024-01-06T03:45:50;3.97;;;2.47;;
7929;SDS011;4010;42.698;23.124;2024-01-06T03:48:18;4.80;;;2.10;;
7929;SDS011;4010;42.698;23.124;2024-01-06T03:50:45;2.27;;;1.20;;
7929;SDS011;4010;42.698;23.124;2024-01-06T03:53:12;2.27;;;1.63;;
7929;SDS011;4010;42.698;23.124;2024-01-06T03:55:38;1.10;;;1.00;;
7929;SDS011;4010;42.698;23.124;2024-01-06T03:58:06;1.87;;;1.03;;
7929;SDS011;4010;42.698;23.124;2024-01-06T04:00:32;1.47;;;1.20;;
7929;SDS011;4010;42.698;23.124;2024-01-06T04:02:59;1.93;;;1.20;;
7929;SDS011;4010;42.698;23.124;2024-01-06T04:05:27;1.40;;;1.20;;
7929;SDS011;4010;42.698;23.124;2024-01-06T04:07:54;1.73;;;1.10;;
7929;SDS011;4010;42.698;23.124;2024-01-06T04:10:21;4.57;;;3.77;;
7929;SDS011;4010;42.698;23.124;2024-01-06T04:12:47;2.73;;;1.20;;
7929;SDS011;4010;42.698;23.124;2024-01-06T04:15:14;2.80;;;1.40;;
7929;SDS011;4010;42.698;23.124;2024-01-06T04:17:41;1.10;;;1.00;;
7929;SDS011;4010;42.698;23.124;2024-01-06T04:20:08;1.50;;;1.20;;
7929;SDS011;4010;42.698;23.124;2024-01-06T04:22:39;2.47;;;1.10;;
7929;SDS011;4010;42.698;23.124;2024-01-06T04:25:06;3.67;;;1.30;;
7929;SDS011;4010;42.698;23.124;2024-01-06T04:27:33;2.77;;;1.10;;
7929;SDS011;4010;42.698;23.124;2024-01-06T04:30:00;0.93;;;0.90;;
7929;SDS011;4010;42.698;23.124;2024-01-06T04:32:27;2.87;;;1.23;;
7929;SDS011;4010;42.698;23.124;2024-01-06T04:34:53;1.53;;;1.27;;
7929;SDS011;4010;42.698;23.124;2024-01-06T04:37:22;1.37;;;1.20;;
7929;SDS011;4010;42.698;23.124;2024-01-06T04:39:50;1.23;;;0.93;;
7929;SDS011;4010;42.698;23.124;2024-01-06T04:42:17;2.73;;;1.10;;
7929;SDS011;4010;42.698;23.124;2024-01-06T04:44:44;2.53;;;1.10;;
7929;SDS011;4010;42.698;23.124;2024-01-06T04:47:11;2.17;;;1.10;;
7929;SDS011;4010;42.698;23.124;2024-01-06T04:49:38;1.20;;;1.07;;
7929;SDS011;4010;42.698;23.124;2024-01-06T04:52:05;1.40;;;1.00;;
7929;SDS011;4010;42.698;23.124;2024-01-06T04:54:31;1.30;;;1.10;;
7929;SDS011;4010;42.698;23.124;2024-01-06T04:56:59;1.30;;;1.20;;
7929;SDS011;4010;42.698;23.124;2024-01-06T04:59:26;2.53;;;1.40;;
7929;SDS011;4010;42.698;23.124;2024-01-06T05:01:53;3.47;;;1.30;;
7929;SDS011;4010;42.698;23.124;2024-01-06T05:04:20;2.10;;;1.30;;
7929;SDS011;4010;42.698;23.124;2024-01-06T05:06:47;1.50;;;1.13;;
7929;SDS011;4010;42.698;23.124;2024-01-06T05:09:14;1.97;;;1.20;;
7929;SDS011;4010;42.698;23.124;2024-01-06T05:11:43;2.97;;;1.33;;
7929;SDS011;4010;42.698;23.124;2024-01-06T05:14:11;2.60;;;1.93;;
7929;SDS011;4010;42.698;23.124;2024-01-06T05:16:37;4.30;;;2.30;;
7929;SDS011;4010;42.698;23.124;2024-01-06T05:19:04;3.43;;;1.53;;
7929;SDS011;4010;42.698;23.124;2024-01-06T05:21:31;6.50;;;3.17;;
7929;SDS011;4010;42.698;23.124;2024-01-06T05:23:58;11.10;;;6.80;;
7929;SDS011;4010;42.698;23.124;2024-01-06T05:26:25;11.97;;;7.83;;
7929;SDS011;4010;42.698;23.124;2024-01-06T05:28:52;11.73;;;6.57;;
7929;SDS011;4010;42.698;23.124;2024-01-06T05:31:20;12.23;;;8.50;;
7929;SDS011;4010;42.698;23.124;2024-01-06T05:33:47;10.10;;;6.90;;
7929;SDS011;4010;42.698;23.124;2024-01-06T05:36:13;11.53;;;6.73;;
7929;SDS011;4010;42.698;23.124;2024-01-06T05:38:45;8.20;;;4.30;;
7929;SDS011;4010;42.698;23.124;2024-01-06T05:41:11;4.27;;;3.00;;
7929;SDS011;4010;42.698;23.124;2024-01-06T05:43:38;5.33;;;3.43;;
7929;SDS011;4010;42.698;23.124;2024-01-06T05:46:05;7.53;;;3.93;;
7929;SDS011;4010;42.698;23.124;2024-01-06T05:48:33;10.23;;;6.70;;
7929;SDS011;4010;42.698;23.124;2024-01-06T05:51:00;12.23;;;6.07;;
7929;SDS011;4010;42.698;23.124;2024-01-06T05:53:27;8.57;;;5.90;;
7929;SDS011;4010;42.698;23.124;2024-01-06T05:55:53;8.97;;;5.60;;
7929;SDS011;4010;42.698;23.124;2024-01-06T05:58:20;8.13;;;5.80;;
7929;SDS011;4010;42.698;23.124;2024-01-06T06:00:47;8.27;;;5.87;;
7929;SDS011;4010;42.698;23.124;2024-01-06T06:03:14;10.37;;;6.27;;
7929;SDS011;4010;42.698;23.124;2024-01-06T06:05:42;8.70;;;6.23;;
7929;SDS011;4010;42.698;23.124;2024-01-06T06:08:10;12.00;;;7.20;;
7929;SDS011;4010;42.698;23.124;2024-01-06T06:10:36;13.70;;;7.60;;
7929;SDS011;4010;42.698;23.124;2024-01-06T06:13:16;16.70;;;10.23;;
7929;SDS011;4010;42.698;23.124;2024-01-06T06:15:44;21.63;;;12.80;;
7929;SDS011;4010;42.698;23.124;2024-01-06T06:18:10;12.77;;;7.93;;
7929;SDS011;4010;42.698;23.124;2024-01-06T06:20:37;15.53;;;9.77;;
7929;SDS011;4010;42.698;23.124;2024-01-06T06:23:05;16.13;;;10.03;;
7929;SDS011;4010;42.698;23.124;2024-01-06T06:25:32;19.47;;;12.20;;
7929;SDS011;4010;42.698;23.124;2024-01-06T06:27:59;18.50;;;11.10;;
7929;SDS011;4010;42.698;23.124;2024-01-06T06:30:25;11.53;;;7.10;;
7929;SDS011;4010;42.698;23.124;2024-01-06T06:32:52;12.63;;;7.83;;
7929;SDS011;4010;42.698;23.124;2024-01-06T06:35:19;11.83;;;8.17;;
7929;SDS011;4010;42.698;23.124;2024-01-06T06:37:45;13.47;;;8.87;;
7929;SDS011;4010;42.698;23.124;2024-01-06T06:40:14;20.73;;;13.13;;
7929;SDS011;4010;42.698;23.124;2024-01-06T06:42:41;17.60;;;9.47;;
7929;SDS011;4010;42.698;23.124;2024-01-06T06:45:08;15.50;;;9.43;;
7929;SDS011;4010;42.698;23.124;2024-01-06T06:47:36;22.70;;;12.27;;
7929;SDS011;4010;42.698;23.124;2024-01-06T06:50:03;10.03;;;7.53;;
7929;SDS011;4010;42.698;23.124;2024-01-06T06:52:31;16.63;;;11.07;;
7929;SDS011;4010;42.698;23.124;2024-01-06T06:54:57;31.70;;;18.67;;
7929;SDS011;4010;42.698;23.124;2024-01-06T06:57:25;28.07;;;17.03;;
7929;SDS011;4010;42.698;23.124;2024-01-06T06:59:52;89.43;;;30.70;;
7929;SDS011;4010;42.698;23.124;2024-01-06T07:02:19;58.43;;;23.17;;
7929;SDS011;4010;42.698;23.124;2024-01-06T07:04:45;38.17;;;17.53;;
7929;SDS011;4010;42.698;23.124;2024-01-06T07:07:12;18.70;;;10.77;;
7929;SDS011;4010;42.698;23.124;2024-01-06T07:09:40;23.27;;;12.87;;
7929;SDS011;4010;42.698;23.124;2024-01-06T07:12:07;19.20;;;12.10;;
7929;SDS011;4010;42.698;23.124;2024-01-06T07:14:35;24.53;;;13.03;;
7929;SDS011;4010;42.698;23.124;2024-01-06T07:17:02;12.03;;;7.20;;
7929;SDS011;4010;42.698;23.124;2024-01-06T07:19:29;12.10;;;7.40;;
7929;SDS011;4010;42.698;23.124;2024-01-06T07:21:56;17.17;;;10.17;;
7929;SDS011;4010;42.698;23.124;2024-01-06T07:24:22;54.23;;;26.60;;
7929;SDS011;4010;42.698;23.124;2024-01-06T07:26:49;22.83;;;11.73;;
7929;SDS011;4010;42.698;23.124;2024-01-06T07:29:16;15.90;;;9.67;;
7929;SDS011;4010;42.698;23.124;2024-01-06T07:31:45;11.47;;;6.73;;
7929;SDS011;4010;42.698;23.124;2024-01-06T07:34:12;7.00;;;4.73;;
7929;SDS011;4010;42.698;23.124;2024-01-06T07:36:39;10.83;;;6.13;;
7929;SDS011;4010;42.698;23.124;2024-01-06T07:39:06;16.53;;;8.77;;
7929;SDS011;4010;42.698;23.124;2024-01-06T07:41:33;19.60;;;12.97;;
7929;SDS011;4010;42.698;23.124;2024-01-06T07:43:59;22.13;;;14.37;;
7929;SDS011;4010;42.698;23.124;2024-01-06T07:46:27;13.83;;;9.80;;
7929;SDS011;4010;42.698;23.124;2024-01-06T07:48:56;11.97;;;7.93;;
7929;SDS011;4010;42.698;23.124;2024-01-06T07:51:23;10.10;;;5.90;;
7929;SDS011;4010;42.698;23.124;2024-01-06T07:53:50;20.13;;;12.27;;
7929;SDS011;4010;42.698;23.124;2024-01-06T07:56:17;12.40;;;6.83;;
7929;SDS011;4010;42.698;23.124;2024-01-06T07:58:43;11.10;;;6.80;;
7929;SDS011;4010;42.698;23.124;2024-01-06T08:01:10;9.80;;;6.03;;
7929;SDS011;4010;42.698;23.124;2024-01-06T08:03:38;8.20;;;5.80;;
7929;SDS011;4010;42.698;23.124;2024-01-06T08:06:06;16.43;;;10.53;;
7929;SDS011;4010;42.698;23.124;2024-01-06T08:08:33;12.07;;;6.00;;
7929;SDS011;4010;42.698;23.124;2024-01-06T08:11:00;10.47;;;5.87;;
7929;SDS011;4010;42.698;23.124;2024-01-06T08:13:27;9.03;;;6.57;;
7929;SDS011;4010;42.698;23.124;2024-01-06T08:15:54;9.47;;;6.27;;
7929;SDS011;4010;42.698;23.124;2024-01-06T08:18:21;8.63;;;6.20;;
7929;SDS011;4010;42.698;23.124;2024-01-06T08:20:47;7.73;;;5.80;;
7929;SDS011;4010;42.698;23.124;2024-01-06T08:23:15;8.63;;;5.20;;
7929;SDS011;4010;42.698;23.124;2024-01-06T08:25:44;28.80;;;17.60;;
7929;SDS011;4010;42.698;23.124;2024-01-06T08:28:11;12.63;;;7.53;;
7929;SDS011;4010;42.698;23.124;2024-01-06T08:30:39;9.00;;;5.70;;
7929;SDS011;4010;42.698;23.124;2024-01-06T08:33:06;12.03;;;6.50;;
7929;SDS011;4010;42.698;23.124;2024-01-06T08:35:33;10.97;;;7.23;;
7929;SDS011;4010;42.698;23.124;2024-01-06T08:38:05;9.90;;;6.03;;
7929;SDS011;4010;42.698;23.124;2024-01-06T08:40:33;17.27;;;11.10;;
7929;SDS011;4010;42.698;23.124;2024-01-06T08:43:00;8.77;;;5.57;;
7929;SDS011;4010;42.698;23.124;2024-01-06T08:45:27;7.10;;;5.13;;
7929;SDS011;4010;42.698;23.124;2024-01-06T08:47:53;7.63;;;5.23;;
7929;SDS011;4010;42.698;23.124;2024-01-06T08:50:20;25.00;;;14.50;;
7929;SDS011;4010;42.698;23.124;2024-01-06T08:52:47;8.23;;;4.77;;
7929;SDS011;4010;42.698;23.124;2024-01-06T08:55:14;7.13;;;4.70;;
7929;SDS011;4010;42.698;23.124;2024-01-06T08:57:42;7.13;;;4.70;;
7929;SDS011;4010;42.698;23.124;2024-01-06T09:00:09;7.60;;;4.97;;
7929;SDS011;4010;42.698;23.124;2024-01-06T09:02:37;9.43;;;6.07;;
7929;SDS011;4010;42.698;23.124;2024-01-06T09:05:04;8.47;;;5.87;;
7929;SDS011;4010;42.698;23.124;2024-01-06T09:07:31;8.20;;;5.73;;
7929;SDS011;4010;42.698;23.124;2024-01-06T09:09:58;8.63;;;6.30;;
7929;SDS011;4010;42.698;23.124;2024-01-06T09:12:25;13.40;;;8.93;;
7929;SDS011;4010;42.698;23.124;2024-01-06T09:14:53;10.03;;;6.90;;
7929;SDS011;4010;42.698;23.124;2024-01-06T09:17:20;13.43;;;8.50;;
7929;SDS011;4010;42.698;23.124;2024-01-06T09:19:47;13.67;;;9.50;;
7929;SDS011;4010;42.698;23.124;2024-01-06T09:22:14;10.63;;;6.53;;
7929;SDS011;4010;42.698;23.124;2024-01-06T09:24:41;12.83;;;8.13;;
7929;SDS011;4010;42.698;23.124;2024-01-06T09:27:07;13.80;;;9.23;;
7929;SDS011;4010;42.698;23.124;2024-01-06T09:29:34;11.90;;;8.17;;
7929;SDS011;4010;42.698;23.124;2024-01-06T09:32:02;12.67;;;8.80;;
7929;SDS011;4010;42.698;23.124;2024-01-06T09:34:29;15.53;;;9.37;;
7929;SDS011;4010;42.698;23.124;2024-01-06T09:36:56;15.80;;;9.93;;
7929;SDS011;4010;42.698;23.124;2024-01-06T09:39:23;15.13;;;9.30;;
7929;SDS011;4010;42.698;23.124;2024-01-06T09:41:49;12.60;;;8.93;;
7929;SDS011;4010;42.698;23.124;2024-01-06T09:44:16;12.07;;;9.70;;
7929;SDS011;4010;42.698;23.124;2024-01-06T09:46:43;15.40;;;10.27;;
7929;SDS011;4010;42.698;23.124;2024-01-06T09:49:12;15.30;;;9.07;;
7929;SDS011;4010;42.698;23.124;2024-01-06T09:51:40;14.57;;;10.47;;
7929;SDS011;4010;42.698;23.124;2024-01-06T09:54:08;15.00;;;11.10;;
7929;SDS011;4010;42.698;23.124;2024-01-06T09:56:38;18.57;;;11.17;;
7929;SDS011;4010;42.698;23.124;2024-01-06T09:59:05;15.43;;;11.10;;
7929;SDS011;4010;42.698;23.124;2024-01-06T10:01:32;16.83;;;10.97;;
7929;SDS011;4010;42.698;23.124;2024-01-06T10:03:59;16.20;;;11.53;;
7929;SDS011;4010;42.698;23.124;2024-01-06T10:06:27;15.20;;;11.43;;
7929;SDS011;4010;42.698;23.124;2024-01-06T10:08:53;14.93;;;11.00;;
7929;SDS011;4010;42.698;23.124;2024-01-06T10:11:22;25.63;;;16.93;;
7929;SDS011;4010;42.698;23.124;2024-01-06T10:13:49;20.20;;;10.90;;
7929;SDS011;4010;42.698;23.124;2024-01-06T10:16:16;14.70;;;12.13;;
7929;SDS011;4010;42.698;23.124;2024-01-06T10:18:43;38.57;;;23.47;;
7929;SDS011;4010;42.698;23.124;2024-01-06T10:21:10;30.20;;;16.17;;
7929;SDS011;4010;42.698;23.124;2024-01-06T10:23:38;21.97;;;14.63;;
7929;SDS011;4010;42.698;23.124;2024-01-06T10:26:08;55.83;;;33.00;;
7929;SDS011;4010;42.698;23.124;2024-01-06T10:28:38;24.50;;;15.13;;
7929;SDS011;4010;42.698;23.124;2024-01-06T10:31:07;26.97;;;18.00;;
7929;SDS011;4010;42.698;23.124;2024-01-06T10:33:34;28.03;;;18.03;;
7929;SDS011;4010;42.698;23.124;2024-01-06T10:36:02;21.57;;;16.17;;
7929;SDS011;4010;42.698;23.124;2024-01-06T10:38:30;20.83;;;13.40;;
7929;SDS011;4010;42.698;23.124;2024-01-06T10:40:58;24.20;;;16.50;;
7929;SDS011;4010;42.698;23.124;2024-01-06T10:43:27;26.37;;;16.80;;
7929;SDS011;4010;42.698;23.124;2024-01-06T10:45:55;19.77;;;13.00;;
7929;SDS011;4010;42.698;23.124;2024-01-06T10:48:24;18.77;;;13.97;;
7929;SDS011;4010;42.698;23.124;2024-01-06T10:50:51;33.77;;;23.53;;
7929;SDS011;4010;42.698;23.124;2024-01-06T10:53:20;26.37;;;19.47;;
7929;SDS011;4010;42.698;23.124;2024-01-06T10:55:48;20.87;;;14.50;;
7929;SDS011;4010;42.698;23.124;2024-01-06T10:58:18;29.20;;;18.37;;
7929;SDS011;4010;42.698;23.124;2024-01-06T11:00:45;37.73;;;25.20;;
7929;SDS011;4010;42.698;23.124;2024-01-06T11:03:13;23.87;;;14.40;;
7929;SDS011;4010;42.698;23.124;2024-01-06T11:05:40;17.50;;;12.90;;
7929;SDS011;4010;42.698;23.124;2024-01-06T11:08:07;20.57;;;15.37;;
7929;SDS011;4010;42.698;23.124;2024-01-06T11:10:36;20.63;;;14.77;;
7929;SDS011;4010;42.698;23.124;2024-01-06T11:13:10;23.67;;;17.40;;
7929;SDS011;4010;42.698;23.124;2024-01-06T11:15:46;24.30;;;16.97;;
7929;SDS011;4010;42.698;23.124;2024-01-06T11:18:30;23.67;;;16.63;;
7929;SDS011;4010;42.698;23.124;2024-01-06T11:24:11;23.50;;;17.47;;
7929;SDS011;4010;42.698;23.124;2024-01-06T11:26:42;22.57;;;16.30;;
7929;SDS011;4010;42.698;23.124;2024-01-06T11:29:10;23.93;;;15.30;;
7929;SDS011;4010;42.698;23.124;2024-01-06T11:31:38;19.90;;;14.17;;
7929;SDS011;4010;42.698;23.124;2024-01-06T11:34:14;17.60;;;12.53;;
7929;SDS011;4010;42.698;23.124;2024-01-06T11:36:43;16.97;;;11.27;;
7929;SDS011;4010;42.698;23.124;2024-01-06T11:42:02;18.73;;;12.43;;
7929;SDS011;4010;42.698;23.124;2024-01-06T11:44:28;18.20;;;11.87;;
7929;SDS011;4010;42.698;23.124;2024-01-06T11:46:57;20.77;;;12.23;;
7929;SDS011;4010;42.698;23.124;2024-01-06T11:49:26;22.50;;;12.10;;
7929;SDS011;4010;42.698;23.124;2024-01-06T11:51:54;18.87;;;10.80;;
7929;SDS011;4010;42.698;23.124;2024-01-06T11:54:20;16.73;;;9.93;;
7929;SDS011;4010;42.698;23.124;2024-01-06T11:56:47;13.13;;;9.17;;
7929;SDS011;4010;42.698;23.124;2024-01-06T11:59:14;13.67;;;8.60;;
7929;SDS011;4010;42.698;23.124;2024-01-06T12:01:41;12.37;;;8.13;;
7929;SDS011;4010;42.698;23.124;2024-01-06T12:04:10;12.30;;;7.57;;
7929;SDS011;4010;42.698;23.124;2024-01-06T12:06:40;11.67;;;7.20;;
7929;SDS011;4010;42.698;23.124;2024-01-06T12:09:07;13.17;;;8.63;;
7929;SDS011;4010;42.698;23.124;2024-01-06T12:11:35;12.37;;;7.23;;
7929;SDS011;4010;42.698;23.124;2024-01-06T12:14:02;14.67;;;7.57;;
7929;SDS011;4010;42.698;23.124;2024-01-06T12:16:29;12.20;;;7.63;;
7929;SDS011;4010;42.698;23.124;2024-01-06T12:18:58;11.63;;;8.17;;
7929;SDS011;4010;42.698;23.124;2024-01-06T12:21:27;13.93;;;7.93;;
7929;SDS011;4010;42.698;23.124;2024-01-06T12:23:54;12.27;;;9.47;;
7929;SDS011;4010;42.698;23.124;2024-01-06T12:26:37;14.23;;;8.70;;
7929;SDS011;4010;42.698;23.124;2024-01-06T12:29:07;12.67;;;8.17;;
7929;SDS011;4010;42.698;23.124;2024-01-06T12:31:33;12.50;;;7.33;;
7929;SDS011;4010;42.698;23.124;2024-01-06T12:34:00;11.10;;;7.00;;
7929;SDS011;4010;42.698;23.124;2024-01-06T12:36:28;11.43;;;7.47;;
7929;SDS011;4010;42.698;23.124;2024-01-06T12:38:56;13.63;;;8.05;;
7929;SDS011;4010;42.698;23.124;2024-01-06T12:41:23;10.37;;;6.77;;
7929;SDS011;4010;42.698;23.124;2024-01-06T12:43:50;10.90;;;6.47;;
7929;SDS011;4010;42.698;23.124;2024-01-06T12:46:17;9.83;;;6.17;;
7929;SDS011;4010;42.698;23.124;2024-01-06T12:48:44;9.03;;;6.33;;
7929;SDS011;4010;42.698;23.124;2024-01-06T12:51:10;18.37;;;10.50;;
7929;SDS011;4010;42.698;23.124;2024-01-06T12:53:38;15.87;;;9.03;;
7929;SDS011;4010;42.698;23.124;2024-01-06T12:56:05;11.17;;;6.57;;
7929;SDS011;4010;42.698;23.124;2024-01-06T12:58:33;9.67;;;5.87;;
7929;SDS011;4010;42.698;23.124;2024-01-06T13:01:00;13.07;;;8.83;;
7929;SDS011;4010;42.698;23.124;2024-01-06T13:03:27;10.87;;;7.33;;
7929;SDS011;4010;42.698;23.124;2024-01-06T13:05:54;9.50;;;6.53;;
7929;SDS011;4010;42.698;23.124;2024-01-06T13:08:21;9.20;;;6.80;;
7929;SDS011;4010;42.698;23.124;2024-01-06T13:10:49;9.17;;;6.53;;
7929;SDS011;4010;42.698;23.124;2024-01-06T13:13:15;10.23;;;6.80;;
7929;SDS011;4010;42.698;23.124;2024-01-06T13:15:42;8.97;;;5.87;;
7929;SDS011;4010;42.698;23.124;2024-01-06T13:18:11;7.20;;;5.70;;
7929;SDS011;4010;42.698;23.124;2024-01-06T13:20:37;9.93;;;5.93;;
7929;SDS011;4010;42.698;23.124;2024-01-06T13:23:06;10.97;;;6.63;;
7929;SDS011;4010;42.698;23.124;2024-01-06T13:25:33;9.80;;;7.23;;
7929;SDS011;4010;42.698;23.124;2024-01-06T13:28:01;11.50;;;6.43;;
7929;SDS011;4010;42.698;23.124;2024-01-06T13:30:27;14.73;;;8.50;;
7929;SDS011;4010;42.698;23.124;2024-01-06T13:32:54;14.80;;;8.00;;
7929;SDS011;4010;42.698;23.124;2024-01-06T13:35:21;11.20;;;7.10;;
7929;SDS011;4010;42.698;23.124;2024-01-06T13:37:50;9.90;;;6.30;;
7929;SDS011;4010;42.698;23.124;2024-01-06T13:40:16;10.27;;;7.17;;
7929;SDS011;4010;42.698;23.124;2024-01-06T13:42:45;10.43;;;6.87;;
7929;SDS011;4010;42.698;23.124;2024-01-06T13:45:13;11.00;;;7.13;;
7929;SDS011;4010;42.698;23.124;2024-01-06T13:47:41;13.50;;;7.47;;
7929;SDS011;4010;42.698;23.124;2024-01-06T13:50:09;14.33;;;7.53;;
7929;SDS011;4010;42.698;23.124;2024-01-06T13:52:37;16.10;;;7.73;;
7929;SDS011;4010;42.698;23.124;2024-01-06T13:55:04;18.17;;;9.37;;
7929;SDS011;4010;42.698;23.124;2024-01-06T13:57:31;14.17;;;8.53;;
7929;SDS011;4010;42.698;23.124;2024-01-06T13:59:58;10.73;;;7.70;;
7929;SDS011;4010;42.698;23.124;2024-01-06T14:02:26;13.33;;;8.97;;
7929;SDS011;4010;42.698;23.124;2024-01-06T14:04:54;8.30;;;6.83;;
7929;SDS011;4010;42.698;23.124;2024-01-06T14:07:21;12.23;;;7.57;;
7929;SDS011;4010;42.698;23.124;2024-01-06T14:09:48;8.43;;;6.70;;
7929;SDS011;4010;42.698;23.124;2024-01-06T14:12:15;10.53;;;7.00;;
7929;SDS011;4010;42.698;23.124;2024-01-06T14:14:41;9.00;;;6.13;;
7929;SDS011;4010;42.698;23.124;2024-01-06T14:17:08;9.00;;;6.43;;
7929;SDS011;4010;42.698;23.124;2024-01-06T14:19:36;10.30;;;6.97;;
7929;SDS011;4010;42.698;23.124;2024-01-06T14:22:03;11.27;;;6.67;;
7929;SDS011;4010;42.698;23.124;2024-01-06T14:24:30;10.93;;;6.30;;
7929;SDS011;4010;42.698;23.124;2024-01-06T14:26:57;11.53;;;7.67;;
7929;SDS011;4010;42.698;23.124;2024-01-06T14:29:24;11.53;;;6.93;;
7929;SDS011;4010;42.698;23.124;2024-01-06T14:31:50;11.53;;;7.43;;
7929;SDS011;4010;42.698;23.124;2024-01-06T14:34:18;10.50;;;7.93;;
7929;SDS011;4010;42.698;23.124;2024-01-06T14:36:46;9.73;;;6.17;;
7929;SDS011;4010;42.698;23.124;2024-01-06T14:39:13;11.75;;;8.48;;
7929;SDS011;4010;42.698;23.124;2024-01-06T14:41:40;11.20;;;8.00;;
7929;SDS011;4010;42.698;23.124;2024-01-06T14:44:07;30.37;;;18.97;;
7929;SDS011;4010;42.698;23.124;2024-01-06T14:46:34;30.17;;;18.33;;
7929;SDS011;4010;42.698;23.124;2024-01-06T14:49:02;14.30;;;10.00;;
7929;SDS011;4010;42.698;23.124;2024-01-06T14:51:29;15.33;;;10.70;;
7929;SDS011;4010;42.698;23.124;2024-01-06T14:53:57;16.63;;;12.70;;
7929;SDS011;4010;42.698;23.124;2024-01-06T14:56:24;15.20;;;9.17;;